createdAt,value
2023-05-17T00:02:03.384Z,3.22
2023-05-17T00:04:30.818Z,3.03
2023-05-17T00:06:58.149Z,2.90
2023-05-17T00:09:25.552Z,3.30
2023-05-17T00:11:52.933Z,3.25
2023-05-17T00:17:00.911Z,2.70
2023-05-17T00:19:30.708Z,3.38
2023-05-17T00:21:57.921Z,3.05
2023-05-17T00:24:25.134Z,2.85
2023-05-17T00:26:52.591Z,2.88
2023-05-17T00:29:19.674Z,3.17
2023-05-17T00:31:46.914Z,3.45
2023-05-17T00:34:14.026Z,2.97
2023-05-17T00:36:41.155Z,3.22
2023-05-17T00:39:08.321Z,3.17
2023-05-17T00:41:36.023Z,4.07
2023-05-17T00:44:03.259Z,2.80
2023-05-17T00:46:30.558Z,3.25
2023-05-17T00:48:57.676Z,3.40
2023-05-17T00:51:24.916Z,4.10
2023-05-17T00:53:52.574Z,2.95
2023-05-17T00:56:19.807Z,3.40
2023-05-17T00:58:50.312Z,3.33
2023-05-17T01:01:17.590Z,2.92
2023-05-17T01:03:45.164Z,3.55
2023-05-17T01:06:12.444Z,3.50
2023-05-17T01:08:39.552Z,3.90
2023-05-17T01:11:12.648Z,4.10
2023-05-17T01:13:58.373Z,3.58
2023-05-17T01:16:25.589Z,3.42
2023-05-17T01:18:59.055Z,3.25
2023-05-17T01:21:45.464Z,4.03
2023-05-17T01:24:30.944Z,3.88
2023-05-17T01:27:00.038Z,3.92
2023-05-17T01:29:27.701Z,3.80
2023-05-17T01:31:55.855Z,4.35
2023-05-17T01:34:27.092Z,5.30
2023-05-17T01:36:54.402Z,4.32
2023-05-17T01:39:21.884Z,4.70
2023-05-17T01:41:58.391Z,4.10
2023-05-17T01:44:32.447Z,4.43
2023-05-17T01:47:07.401Z,3.95
2023-05-17T01:49:37.757Z,3.33
2023-05-17T01:52:04.907Z,4.43
2023-05-17T01:54:32.940Z,3.83
2023-05-17T01:57:00.017Z,4.88
2023-05-17T01:59:27.499Z,4.18
2023-05-17T02:02:03.937Z,3.53
2023-05-17T02:04:31.487Z,3.53
2023-05-17T02:06:58.759Z,4.55
2023-05-17T02:09:26.006Z,4.65
2023-05-17T02:11:53.121Z,4.03
2023-05-17T02:14:20.309Z,4.05
2023-05-17T02:16:47.592Z,4.15
2023-05-17T02:19:15.203Z,5.10
2023-05-17T02:21:42.420Z,4.68
2023-05-17T02:24:09.588Z,4.70
2023-05-17T02:26:36.875Z,5.25
2023-05-17T02:29:03.981Z,5.05
2023-05-17T02:31:31.478Z,4.93
2023-05-17T02:36:35.050Z,5.43
2023-05-17T02:39:02.178Z,4.07
2023-05-17T02:41:29.411Z,4.07
2023-05-17T02:43:56.539Z,4.68
2023-05-17T02:48:55.754Z,4.70
2023-05-17T02:51:22.822Z,5.00
2023-05-17T02:53:49.947Z,5.25
2023-05-17T02:56:17.112Z,4.75
2023-05-17T02:58:44.240Z,4.35
2023-05-17T03:01:11.405Z,4.53
2023-05-17T03:03:38.886Z,5.05
2023-05-17T03:06:06.302Z,5.10
2023-05-17T03:08:33.520Z,5.38
2023-05-17T03:11:00.813Z,4.68
2023-05-17T03:13:28.081Z,4.80
2023-05-17T03:15:55.329Z,5.85
2023-05-17T03:18:22.699Z,5.97
2023-05-17T03:20:52.793Z,4.57
2023-05-17T03:23:22.168Z,5.18
2023-05-17T03:25:50.050Z,5.63
2023-05-17T03:28:17.271Z,5.25
2023-05-17T03:30:44.359Z,6.05
2023-05-17T03:33:11.676Z,6.40
2023-05-17T03:35:38.958Z,5.15
2023-05-17T03:38:06.106Z,6.00
2023-05-17T03:40:33.266Z,6.18
2023-05-17T03:43:00.923Z,5.95
2023-05-17T03:45:28.363Z,5.80
2023-05-17T03:47:56.177Z,6.50
2023-05-17T03:50:23.370Z,6.20
2023-05-17T03:52:50.624Z,6.18
2023-05-17T03:55:18.089Z,6.10
2023-05-17T03:57:45.262Z,6.40
2023-05-17T04:00:21.181Z,7.03
2023-05-17T04:02:48.944Z,7.28
2023-05-17T04:05:16.579Z,7.13
2023-05-17T04:07:44.068Z,7.05
2023-05-17T04:10:11.423Z,7.50
2023-05-17T04:12:39.176Z,7.82
2023-05-17T04:15:06.812Z,7.07
2023-05-17T04:17:34.052Z,7.95
2023-05-17T04:20:01.241Z,8.23
2023-05-17T04:22:28.495Z,7.05
2023-05-17T04:24:55.672Z,7.45
2023-05-17T04:27:23.325Z,7.45
2023-05-17T04:29:50.665Z,9.00
2023-05-17T04:32:18.819Z,7.55
2023-05-17T04:37:39.960Z,10.05
2023-05-17T04:40:08.152Z,6.63
2023-05-17T04:42:35.695Z,7.88
2023-05-17T04:45:05.672Z,7.70
2023-05-17T04:50:18.847Z,7.25
2023-05-17T04:52:47.843Z,8.27
2023-05-17T04:55:15.147Z,7.38
2023-05-17T04:57:42.550Z,8.05
2023-05-17T05:00:10.268Z,7.30
2023-05-17T05:02:39.252Z,7.50
2023-05-17T05:05:07.028Z,8.05
2023-05-17T05:07:34.324Z,10.02
2023-05-17T05:10:02.215Z,7.45
2023-05-17T05:12:29.562Z,9.05
2023-05-17T05:14:57.727Z,8.50
2023-05-17T05:17:26.617Z,9.20
2023-05-17T05:19:54.438Z,8.18
2023-05-17T05:22:22.090Z,8.45
2023-05-17T05:24:49.412Z,9.57
2023-05-17T05:27:16.657Z,9.60
2023-05-17T05:29:44.049Z,12.40
2023-05-17T05:32:11.224Z,9.68
2023-05-17T05:34:45.894Z,11.05
2023-05-17T05:37:13.525Z,9.88
2023-05-17T05:39:40.765Z,10.63
2023-05-17T05:42:08.147Z,11.48
2023-05-17T05:44:35.403Z,12.45
2023-05-17T05:47:02.860Z,12.77
2023-05-17T05:49:30.081Z,11.55
2023-05-17T05:51:57.982Z,11.88
2023-05-17T05:54:25.481Z,12.85
2023-05-17T05:56:52.678Z,12.38
2023-05-17T05:59:19.826Z,11.68
2023-05-17T06:01:49.131Z,12.65
2023-05-17T06:04:16.465Z,13.88
2023-05-17T06:06:45.341Z,16.15
2023-05-17T06:09:12.830Z,14.85
2023-05-17T06:11:40.368Z,14.98
2023-05-17T06:14:10.302Z,14.95
2023-05-17T06:16:37.693Z,15.57
2023-05-17T06:19:05.494Z,15.15
2023-05-17T06:21:32.733Z,16.02
2023-05-17T06:23:59.929Z,14.82
2023-05-17T06:26:27.595Z,17.70
2023-05-17T06:28:54.704Z,16.30
2023-05-17T06:31:21.942Z,17.27
2023-05-17T06:33:49.685Z,19.42
2023-05-17T06:36:17.380Z,19.92
2023-05-17T06:38:44.541Z,22.42
2023-05-17T06:41:11.789Z,19.95
2023-05-17T06:43:39.231Z,22.92
2023-05-17T06:46:06.484Z,22.15
2023-05-17T06:51:09.206Z,18.70
2023-05-17T06:54:01.537Z,19.83
2023-05-17T07:02:59.705Z,25.07
2023-05-17T07:05:29.900Z,29.95
2023-05-17T07:08:03.472Z,30.48
2023-05-17T07:10:31.483Z,25.90
2023-05-17T07:13:20.344Z,28.08
2023-05-17T07:15:54.824Z,27.20
2023-05-17T07:18:22.326Z,31.50
2023-05-17T07:20:55.769Z,29.95
2023-05-17T07:31:33.038Z,24.95
2023-05-17T07:34:00.748Z,24.63
2023-05-17T07:36:30.787Z,24.67
2023-05-17T07:39:08.255Z,22.30
2023-05-17T07:41:36.090Z,20.38
2023-05-17T07:44:05.840Z,19.08
2023-05-17T07:46:34.133Z,18.13
2023-05-17T07:49:01.708Z,16.90
2023-05-17T07:51:29.940Z,16.30
2023-05-17T07:53:58.360Z,16.00
2023-05-17T07:56:25.719Z,16.42
2023-05-17T07:58:54.100Z,13.60
2023-05-17T08:01:21.930Z,14.88
2023-05-17T08:03:54.717Z,14.43
2023-05-17T08:06:23.036Z,10.82
2023-05-17T08:08:51.285Z,11.18
2023-05-17T08:11:19.546Z,11.32
2023-05-17T08:13:50.389Z,11.80
2023-05-17T08:18:49.584Z,10.55
2023-05-17T08:21:17.654Z,9.38
2023-05-17T08:23:49.201Z,9.93
2023-05-17T08:28:58.911Z,8.35
2023-05-17T08:31:26.241Z,6.22
2023-05-17T08:33:53.596Z,5.90
2023-05-17T08:36:20.971Z,6.80
2023-05-17T08:38:48.318Z,6.85
2023-05-17T08:41:15.965Z,5.95
2023-05-17T08:43:44.608Z,5.47
2023-05-17T08:46:12.893Z,4.72
2023-05-17T08:48:42.110Z,4.60
2023-05-17T08:51:13.314Z,3.90
2023-05-17T08:53:42.535Z,4.15
2023-05-17T08:56:13.003Z,4.57
2023-05-17T08:58:55.745Z,5.20
2023-05-17T09:01:26.502Z,4.63
2023-05-17T09:03:54.614Z,4.10
2023-05-17T09:06:22.827Z,4.20
2023-05-17T09:08:54.635Z,3.13
2023-05-17T09:11:28.368Z,2.90
2023-05-17T09:13:59.117Z,2.78
2023-05-17T09:16:28.522Z,2.85
2023-05-17T09:18:56.997Z,2.53
2023-05-17T09:21:24.990Z,2.58
2023-05-17T09:24:04.786Z,2.30
2023-05-17T09:26:40.411Z,2.72
2023-05-17T09:29:15.591Z,2.95
2023-05-17T09:31:44.741Z,2.05
2023-05-17T09:34:12.191Z,2.47
2023-05-17T09:36:42.648Z,2.17
2023-05-17T09:39:14.354Z,1.90
2023-05-17T09:41:45.132Z,2.30
2023-05-17T09:44:12.917Z,2.78
2023-05-17T09:46:43.652Z,3.20
2023-05-17T09:49:11.024Z,2.53
2023-05-17T09:51:46.549Z,3.00
2023-05-17T09:54:14.187Z,2.88
2023-05-17T09:56:42.120Z,2.47
2023-05-17T09:59:14.581Z,2.05
2023-05-17T10:01:43.102Z,2.20
2023-05-17T10:04:11.650Z,2.10
2023-05-17T10:09:12.260Z,2.60
2023-05-17T10:11:40.939Z,2.20
2023-05-17T10:14:12.585Z,2.25
2023-05-17T10:16:39.996Z,2.90
2023-05-17T10:19:07.816Z,2.38
2023-05-17T10:21:35.362Z,2.03
2023-05-17T10:24:03.023Z,2.20
2023-05-17T10:26:33.034Z,2.15
2023-05-17T10:29:01.748Z,2.50
2023-05-17T10:31:33.572Z,2.30
2023-05-17T10:34:05.926Z,2.00
2023-05-17T10:36:34.086Z,1.80
2023-05-17T10:44:34.158Z,2.22
2023-05-17T10:47:01.777Z,3.10
2023-05-17T10:49:33.526Z,2.38
2023-05-17T10:52:11.697Z,2.13
2023-05-17T10:54:41.704Z,2.55
2023-05-17T10:57:09.793Z,2.20
2023-05-17T10:59:37.035Z,3.10
2023-05-17T11:02:05.628Z,2.58
2023-05-17T11:04:37.430Z,3.00
2023-05-17T11:07:17.450Z,2.85
2023-05-17T11:09:46.840Z,2.30
2023-05-17T11:14:45.625Z,2.47
2023-05-17T11:17:17.779Z,4.22
2023-05-17T11:19:54.571Z,2.90
2023-05-17T11:22:28.490Z,2.58
2023-05-17T11:24:58.077Z,2.58
2023-05-17T11:27:30.003Z,1.95
2023-05-17T11:29:58.815Z,2.13
2023-05-17T11:32:29.966Z,2.47
2023-05-17T11:34:58.015Z,2.45
2023-05-17T11:37:30.065Z,2.05
2023-05-17T11:40:22.368Z,2.28
2023-05-17T11:42:51.001Z,2.05
2023-05-17T11:45:18.789Z,2.97
2023-05-17T11:47:49.186Z,2.65
2023-05-17T11:50:25.667Z,2.58
2023-05-17T11:53:01.329Z,2.80
2023-05-17T11:55:29.313Z,2.33
2023-05-17T11:57:57.963Z,2.65
2023-05-17T12:00:29.094Z,2.03
2023-05-17T12:02:57.005Z,2.88
2023-05-17T12:08:07.567Z,1.92
2023-05-17T12:10:36.427Z,2.20
2023-05-17T12:13:04.191Z,2.35
2023-05-17T12:15:32.158Z,2.42
2023-05-17T12:17:59.617Z,1.80
2023-05-17T12:20:27.876Z,2.97
2023-05-17T12:22:56.183Z,2.60
2023-05-17T12:25:25.622Z,2.45
2023-05-17T12:28:03.045Z,2.45
2023-05-17T12:30:30.928Z,2.33
2023-05-17T12:32:58.680Z,1.80
2023-05-17T12:35:26.313Z,1.70
2023-05-17T12:37:53.700Z,3.45
2023-05-17T12:40:23.049Z,2.40
2023-05-17T12:45:16.511Z,2.22
2023-05-17T12:47:46.930Z,2.50
2023-05-17T12:50:14.613Z,2.20
2023-05-17T12:52:42.811Z,2.00
2023-05-17T12:55:13.841Z,2.63
2023-05-17T12:57:49.278Z,2.58
2023-05-17T13:00:17.047Z,2.95
2023-05-17T13:02:47.362Z,2.88
2023-05-17T13:05:17.106Z,2.33
2023-05-17T13:07:44.584Z,2.40
2023-05-17T13:10:27.620Z,2.03
2023-05-17T13:13:00.157Z,2.28
2023-05-17T13:15:34.983Z,1.98
2023-05-17T13:18:16.534Z,2.63
2023-05-17T13:20:48.080Z,2.17
2023-05-17T13:23:21.174Z,3.05
2023-05-17T13:25:49.645Z,2.30
2023-05-17T13:28:17.882Z,2.75
2023-05-17T13:30:50.283Z,2.92
2023-05-17T13:33:17.790Z,2.50
2023-05-17T13:35:46.002Z,3.55
2023-05-17T13:38:14.466Z,2.03
2023-05-17T13:40:44.413Z,2.72
2023-05-17T13:48:28.731Z,3.10
2023-05-17T13:50:57.160Z,2.58
2023-05-17T13:53:24.628Z,2.15
2023-05-17T13:55:52.109Z,1.80
2023-05-17T13:58:24.077Z,2.13
2023-05-17T14:00:58.048Z,2.78
2023-05-17T14:03:26.349Z,2.20
2023-05-17T14:05:54.724Z,2.20
2023-05-17T14:08:23.051Z,3.25
2023-05-17T14:10:51.136Z,2.50
2023-05-17T14:13:18.935Z,2.13
2023-05-17T14:15:46.588Z,2.42
2023-05-17T14:18:14.425Z,1.70
2023-05-17T14:20:42.979Z,2.05
2023-05-17T14:23:10.623Z,2.28
2023-05-17T14:25:37.743Z,2.40
2023-05-17T14:28:05.787Z,1.70
2023-05-17T14:30:38.452Z,2.72
2023-05-17T14:33:05.751Z,1.80
2023-05-17T14:35:33.306Z,2.08
2023-05-17T14:38:00.805Z,1.95
2023-05-17T14:40:28.392Z,3.78
2023-05-17T14:42:56.778Z,2.08
2023-05-17T14:45:26.807Z,2.25
2023-05-17T14:48:00.549Z,2.25
2023-05-17T14:50:28.080Z,1.88
2023-05-17T14:52:55.332Z,2.40
2023-05-17T14:55:22.963Z,2.30
2023-05-17T14:57:52.965Z,2.45
2023-05-17T15:03:11.687Z,2.33
2023-05-17T15:05:40.350Z,1.80
2023-05-17T15:08:08.418Z,1.98
2023-05-17T15:10:36.171Z,2.22
2023-05-17T15:13:04.647Z,1.95
2023-05-17T15:15:33.715Z,2.33
2023-05-17T15:18:01.477Z,2.07
2023-05-17T15:20:31.431Z,2.10
2023-05-17T15:25:28.631Z,1.92
2023-05-17T15:27:56.155Z,2.75
2023-05-17T15:30:27.911Z,2.00
2023-05-17T15:32:57.433Z,1.60
2023-05-17T15:35:29.544Z,2.55
2023-05-17T15:37:59.301Z,2.53
2023-05-17T15:40:27.036Z,2.33
2023-05-17T15:42:54.490Z,2.40
2023-05-17T15:45:28.803Z,1.95
2023-05-17T15:47:57.265Z,1.77
2023-05-17T15:50:25.989Z,1.85
2023-05-17T15:52:53.220Z,1.90
2023-05-17T15:55:26.926Z,2.25
2023-05-17T15:57:54.181Z,1.98
2023-05-17T16:00:21.842Z,1.92
2023-05-17T16:02:49.309Z,2.28
2023-05-17T16:05:17.267Z,1.95
2023-05-17T16:07:44.534Z,3.67
2023-05-17T16:10:11.934Z,2.85
2023-05-17T16:12:39.368Z,2.22
2023-05-17T16:15:06.591Z,2.30
2023-05-17T16:17:34.294Z,1.88
2023-05-17T16:20:01.762Z,2.13
2023-05-17T16:22:30.328Z,3.03
2023-05-17T16:24:57.407Z,2.35
2023-05-17T16:27:25.391Z,2.42
2023-05-17T16:29:53.672Z,2.35
2023-05-17T16:32:23.425Z,2.45
2023-05-17T16:34:50.949Z,2.80
2023-05-17T16:37:18.297Z,2.05
2023-05-17T16:39:46.198Z,2.22
2023-05-17T16:42:13.826Z,2.05
2023-05-17T16:44:41.891Z,3.05
2023-05-17T16:47:11.913Z,2.08
2023-05-17T16:52:08.969Z,2.33
2023-05-17T16:54:36.745Z,2.08
2023-05-17T16:59:40.889Z,2.63
2023-05-17T17:02:08.272Z,2.38
2023-05-17T17:04:35.890Z,2.10
2023-05-17T17:12:29.067Z,1.95
2023-05-17T17:14:55.906Z,2.63
2023-05-17T17:17:22.690Z,2.90
2023-05-17T17:19:49.913Z,2.53
2023-05-17T17:22:16.803Z,2.45
2023-05-17T17:24:44.452Z,2.13
2023-05-17T17:27:11.650Z,2.08
2023-05-17T17:29:38.585Z,2.55
2023-05-17T17:32:05.988Z,2.03
2023-05-17T17:34:33.738Z,2.20
2023-05-17T17:37:00.728Z,1.85
2023-05-17T17:39:30.047Z,1.73
2023-05-17T17:41:56.788Z,2.20
2023-05-17T17:44:23.674Z,1.85
2023-05-17T17:46:50.601Z,1.70
2023-05-17T17:49:17.435Z,2.40
2023-05-17T17:51:44.164Z,1.95
2023-05-17T17:54:10.999Z,1.83
2023-05-17T17:56:38.170Z,2.25
2023-05-17T17:59:04.913Z,2.83
2023-05-17T18:01:33.763Z,2.08
2023-05-17T18:04:06.833Z,1.80
2023-05-17T18:06:33.833Z,1.95
2023-05-17T18:09:00.671Z,2.25
2023-05-17T18:11:28.051Z,2.63
2023-05-17T18:13:58.377Z,1.95
2023-05-17T18:18:51.991Z,1.85
2023-05-17T18:21:18.860Z,2.00
2023-05-17T18:23:46.201Z,2.05
2023-05-17T18:26:14.196Z,2.38
2023-05-17T18:28:43.042Z,1.60
2023-05-17T18:31:11.471Z,2.40
2023-05-17T18:33:38.503Z,1.48
2023-05-17T18:36:05.833Z,2.17
2023-05-17T18:38:33.721Z,2.20
2023-05-17T18:41:00.568Z,2.45
2023-05-17T18:43:31.313Z,2.45
2023-05-17T18:45:58.158Z,2.78
2023-05-17T18:48:25.587Z,2.50
2023-05-17T18:50:53.622Z,2.35
2023-05-17T18:53:20.986Z,2.40
2023-05-17T18:55:48.080Z,2.83
2023-05-17T18:58:15.389Z,2.70
2023-05-17T19:00:42.826Z,2.28
2023-05-17T19:03:10.058Z,2.60
2023-05-17T19:05:37.186Z,2.53
2023-05-17T19:08:04.321Z,2.50
2023-05-17T19:10:31.972Z,2.13
2023-05-17T19:12:59.410Z,2.47
2023-05-17T19:15:26.604Z,3.15
2023-05-17T19:17:53.755Z,2.53
2023-05-17T19:20:21.388Z,2.35
2023-05-17T19:22:48.481Z,2.60
2023-05-17T19:25:17.893Z,2.78
2023-05-17T19:27:46.144Z,2.67
2023-05-17T19:30:13.673Z,2.95
2023-05-17T19:32:41.426Z,2.72
2023-05-17T19:35:09.104Z,2.70
2023-05-17T19:37:36.540Z,2.83
2023-05-17T19:40:07.612Z,3.47
2023-05-17T19:42:35.042Z,3.03
2023-05-17T19:45:02.228Z,3.00
2023-05-17T19:47:29.367Z,3.17
2023-05-17T19:49:57.637Z,2.40
2023-05-17T19:52:24.778Z,2.75
2023-05-17T19:54:51.913Z,3.75
2023-05-17T19:57:19.084Z,2.67
2023-05-17T19:59:46.348Z,3.25
2023-05-17T20:02:13.537Z,2.95
2023-05-17T20:04:40.770Z,2.67
2023-05-17T20:07:08.175Z,3.65
2023-05-17T20:09:36.267Z,3.17
2023-05-17T20:12:03.509Z,3.38
2023-05-17T20:14:30.847Z,4.45
2023-05-17T20:16:58.031Z,3.10
2023-05-17T20:19:25.285Z,2.83
2023-05-17T20:21:52.891Z,6.88
2023-05-17T20:24:22.444Z,2.97
2023-05-17T20:26:49.566Z,3.10
2023-05-17T20:29:17.177Z,2.88
2023-05-17T20:31:44.735Z,3.58
2023-05-17T20:34:12.084Z,3.63
2023-05-17T20:36:39.633Z,3.40
2023-05-17T20:39:07.519Z,5.95
2023-05-17T20:41:34.921Z,3.55
2023-05-17T20:44:02.362Z,3.35
2023-05-17T20:46:32.819Z,3.03
2023-05-17T20:54:09.235Z,2.90
2023-05-17T20:56:36.961Z,2.88
2023-05-17T20:59:04.318Z,3.03
2023-05-17T21:01:32.075Z,2.47
2023-05-17T21:03:59.706Z,2.83
2023-05-17T21:06:30.225Z,3.63
2023-05-17T21:09:02.144Z,4.32
2023-05-17T21:11:29.858Z,3.60
2023-05-17T21:14:00.817Z,3.92
2023-05-17T21:16:28.353Z,2.75
2023-05-17T21:18:55.749Z,3.10
2023-05-17T21:21:22.992Z,3.17
2023-05-17T21:23:50.748Z,3.38
2023-05-17T21:26:18.003Z,3.40
2023-05-17T21:28:45.456Z,4.72
2023-05-17T21:31:14.788Z,3.55
2023-05-17T21:33:50.495Z,6.03
2023-05-17T21:39:08.974Z,3.53
2023-05-17T21:44:22.345Z,3.35
2023-05-17T21:49:31.744Z,2.85
2023-05-17T21:51:58.987Z,3.03
2023-05-17T21:54:26.428Z,3.55
2023-05-17T21:59:45.871Z,3.25
2023-05-17T22:04:56.273Z,3.63
2023-05-17T22:07:25.227Z,4.40
2023-05-17T22:18:06.478Z,3.90
2023-05-17T22:20:42.060Z,3.80
2023-05-17T22:23:11.993Z,3.58
2023-05-17T22:25:42.335Z,2.85
2023-05-17T22:33:29.134Z,3.92
2023-05-17T22:35:58.656Z,3.63
2023-05-17T22:38:29.509Z,4.30
2023-05-17T22:41:00.466Z,3.70
2023-05-17T22:46:09.475Z,3.55
2023-05-17T22:48:44.931Z,3.83
2023-05-17T22:51:13.341Z,4.85
2023-05-17T22:53:41.390Z,3.17
2023-05-17T22:56:08.960Z,3.90
2023-05-17T22:58:38.771Z,3.60
2023-05-17T23:01:10.284Z,4.25
2023-05-17T23:03:46.370Z,4.15
2023-05-17T23:06:18.336Z,3.97
2023-05-17T23:08:46.226Z,3.55
2023-05-17T23:14:00.986Z,4.32
2023-05-17T23:16:29.070Z,4.63
2023-05-17T23:21:41.155Z,4.28
2023-05-17T23:24:08.960Z,2.70
2023-05-17T23:26:37.193Z,4.47
2023-05-17T23:29:09.089Z,3.40
2023-05-17T23:31:37.983Z,3.95
2023-05-17T23:34:07.545Z,3.58
2023-05-17T23:36:42.201Z,3.92
2023-05-17T23:39:18.367Z,3.58
2023-05-17T23:41:46.299Z,4.03
2023-05-17T23:44:14.383Z,3.95
2023-05-17T23:46:52.491Z,3.90
2023-05-17T23:52:14.232Z,3.97
2023-05-17T23:54:45.732Z,3.72
2023-05-17T23:59:57.860Z,3.88
